Terminal Aerodrome Forecast
Issued by NWS

Home | Current Version | Previous Version | Graphics & Text | Print | Product List | Glossary On
Versions: 1 2 3 4 5 6 7 8 9 10 11 12 13 14 15 16 17 18 19 20 21 22 23 24 25 26 27 28
970
FTUS43 KGRB 220324 AAB
TAFMTW
TAF AMD
KMTW 220324Z 2203/2224 22004KT 1SM BR OVC010
      TEMPO 2203/2205 1/2SM -DZ FG OVC003
     FM220500 22004KT 1/2SM -DZ FG OVC003
     FM221600 VRB03KT 1/2SM FG OVC002
     FM221800 34004KT 3SM BR OVC008=

USA.gov is the U.S. government's official web portal to all federal, state and local government web resources and services.